Time;durP1;ratioP1;P1;durP2;ratioP2;P2;SDS_P1;SDS_P2;PMS_P1;PMS_P2;Temp;Humidity;BMP_temperature;BMP_pressure;BME280_temperature;BME280_humidity;BME280_pressure;Samples;Min_cycle;Max_cycle;Signal;HPM_P1;HPM_P2
2022/06/06 11:55:07;;;;;;;;;;;;;;;;;;5113662;28;6705;-58
2022/06/06 11:57:39;;;;;;;;;;;;;;;;;;5110915;28;7124;-58
2022/06/06 12:00:07;;;;;;;;;;;;;;;;;;5092719;28;7222;-58
2022/06/06 12:03:03;;;;;;;;;;;;;;;;;;5074300;28;6975;-58
2022/06/06 12:05:29;;;;;;;;;;;;;;;;;;5092458;28;7121;-69
2022/06/06 12:08:50;;;;;;;;;;;;;;;;;;5032321;28;7163;-65
2022/06/06 12:11:35;;;;;;;;;;;;;;;;;;5012483;28;7090;-64
2022/06/06 12:14:01;;;;;;;;;;;;;;;;;;5012816;28;7039;-64
2022/06/06 12:16:41;;;;;;;;;;;;;;;;;;5012602;28;7412;-64
2022/06/06 12:25:01;;;;;;;;;;;;;;;;;;5114314;27;6750;-58
2022/06/06 12:27:26;;;;;;;;;;;;;;;;;;5111394;28;7193;-59
2022/06/06 12:30:10;;;;;;;;;;;;;;;;;;5092033;28;7227;-59
2022/06/06 12:32:45;;;;;;;;;;;;;;;;;;5071976;28;7561;-58
2022/06/06 12:38:09;;;;;;;;;;;;;;;;;;5070975;28;7087;-58
2022/06/06 12:42:12;;;;;;;;;;;;;;;;;;5032009;28;8075;-59
2022/06/06 13:52:56;;;;;;;;;;;;;;;;;;5052028;28;6706;-52
2022/06/06 13:55:26;;;;;;;;;;;;;;;;;;5006773;28;7235;-50
2022/06/06 13:58:06;;;;;;;;;;;;;;;;;;5048387;28;7515;-57
2022/06/06 14:00:56;;;;;;;;;;;;;;;;;;5027120;28;7740;-55
2022/06/06 14:03:29;;;;;;;;;;;;;;;;;;5026982;28;7169;-56
2022/06/06 14:06:02;;;;;;;;;;;;;;;;;;5027306;28;7244;-55
2022/06/06 14:08:46;;;;;;;;;;;;;;;;;;5027017;28;7154;-55
2022/06/06 14:11:11;;;;;;;;;;;;;;;;;;5027164;28;8411;-56
2022/06/06 14:13:44;;;;;;;;;;;;;;;;;;5027435;28;7511;-52
2022/06/06 14:16:21;;;;;;;;;;;;;;;;;;5026497;28;7176;-53
2022/06/06 14:18:48;;;;;;;;;;;;;;;;;;5027060;28;8453;-56
2022/06/06 14:21:33;;;;;;;;;;;;;;;;;;5026667;28;7280;-56
2022/06/06 14:24:12;;;;;;;;;;;;;;;;;;5026557;28;7109;-57
2022/06/06 14:26:38;;;;;;;;;;;;;;;;;;5026915;28;8527;-55
2022/06/06 14:29:05;;;;;;;;;;;;;;;;;;5027082;28;7490;-56
2022/06/06 14:31:35;;;;;;;;;;;;;;;;;;5026634;28;7365;-56
2022/06/06 14:34:02;;;;;;;;;;;;;;;;;;5026702;28;7386;-58
2022/06/06 14:36:28;;;;;;;;;;;;;;;;;;5026503;28;7175;-60
2022/06/06 14:38:54;;;;;;;;;;;;;;;;;;5026353;28;8476;-57
2022/06/06 14:41:20;;;;;;;;;;;;;;;;;;5026690;28;7126;-55
2022/06/06 14:43:59;;;;;;;;;;;;;;;;;;5026418;28;8535;-49
2022/06/06 14:46:24;;;;;;;;;;;;;;;;;;5024119;28;7233;-51
2022/06/06 14:48:53;;;;;;;;;;;;;;;;;;5026471;28;8822;-48
2022/06/06 14:51:19;;;;;;;;;;;;;;;;;;5013593;28;7164;-54
2022/06/06 14:53:51;;;;;;;;;;;;;;;;;;5049607;28;7145;-48
2022/06/06 14:56:19;;;;;;;;;;;;;;;;;;5027582;28;7484;-51
2022/06/06 14:58:55;;;;;;;;;;;;;;;;;;5029064;28;8880;-58
2022/06/06 15:01:21;;;;;;;;;;;;;;;;;;5021968;28;7227;-61
2022/06/06 15:03:48;;;;;;;;;;;;;;;;;;5033247;28;8542;-59
2022/06/06 15:06:14;;;;;;;;;;;;;;;;;;5012946;28;7163;-56
2022/06/06 15:08:42;;;;;;;;;;;;;;;;;;5012483;28;7463;-56
2022/06/06 15:11:12;;;;;;;;;;;;;;;;;;5012769;28;7341;-59
2022/06/06 15:13:45;;;;;;;;;;;;;;;;;;5012105;28;7165;-56
2022/06/06 15:16:12;;;;;;;;;;;;;;;;;;5012357;28;7550;-56
2022/06/06 15:18:41;;;;;;;;;;;;;;;;;;5012450;28;8514;-55
2022/06/06 15:21:06;;;;;;;;;;;;;;;;;;5028774;28;8849;-56
2022/06/06 15:23:36;;;;;;;;;;;;;;;;;;5028949;28;7692;-56
2022/06/06 15:26:06;;;;;;;;;;;;;;;;;;5012435;28;8426;-56
2022/06/06 15:28:31;;;;;;;;;;;;;;;;;;5012405;28;8601;-56
2022/06/06 15:31:03;;;;;;;;;;;;;;;;;;5011965;28;8555;-56
2022/06/06 15:33:28;;;;;;;;;;;;;;;;;;5012452;28;7153;-56
2022/06/06 15:35:57;;;;;;;;;;;;;;;;;;5012408;28;8551;-55
2022/06/06 15:38:29;;;;;;;;;;;;;;;;;;5011613;28;8835;-57
2022/06/06 15:41:01;;;;;;;;;;;;;;;;;;5012123;28;8669;-57
2022/06/06 15:43:45;;;;;;;;;;;;;;;;;;5011543;28;7582;-57
2022/06/06 15:46:37;;;;;;;;;;;;;;;;;;5012163;28;7078;-55
2022/06/06 15:49:05;;;;;;;;;;;;;;;;;;5011515;28;8922;-56
2022/06/06 15:51:34;;;;;;;;;;;;;;;;;;5011341;28;7726;-54
2022/06/06 15:54:18;;;;;;;;;;;;;;;;;;5011858;28;8773;-56
2022/06/06 15:56:43;;;;;;;;;;;;;;;;;;5011649;28;8798;-57
2022/06/06 15:59:12;;;;;;;;;;;;;;;;;;5011505;28;9598;-54
2022/06/06 16:01:40;;;;;;;;;;;;;;;;;;5011971;28;8709;-56
2022/06/06 16:04:15;;;;;;;;;;;;;;;;;;5011802;28;8531;-56
2022/06/06 16:06:42;;;;;;;;;;;;;;;;;;5011384;28;7364;-56
2022/06/06 16:09:08;;;;;;;;;;;;;;;;;;5011153;28;7173;-58
2022/06/06 16:11:39;;;;;;;;;;;;;;;;;;5011192;28;7243;-55
2022/06/06 16:14:24;;;;;;;;;;;;;;;;;;5021635;28;8678;-56
2022/06/06 16:16:49;;;;;;;;;;;;;;;;;;5030026;28;7359;-57
2022/06/06 16:19:24;;;;;;;;;;;;;;;;;;4997991;28;7224;-56
2022/06/06 16:21:53;;;;;;;;;;;;;;;;;;5014210;28;8531;-56
2022/06/06 16:24:21;;;;;;;;;;;;;;;;;;4998315;28;8710;-56
2022/06/06 16:26:55;;;;;;;;;;;;;;;;;;4997816;28;7281;-56
2022/06/06 16:29:35;;;;;;;;;;;;;;;;;;4998042;28;7253;-55
2022/06/06 16:32:23;;;;;;;;;;;;;;;;;;4997972;28;8517;-56
2022/06/06 16:34:49;;;;;;;;;;;;;;;;;;4997829;28;8564;-55
2022/06/06 16:37:15;;;;;;;;;;;;;;;;;;4997179;28;7237;-57
2022/06/06 16:39:49;;;;;;;;;;;;;;;;;;4997786;28;8509;-56
2022/06/06 16:48:07;;;;;;;;;;;;;;;;;;5013889;28;7625;-56
2022/06/06 16:50:45;;;;;;;;;;;;;;;;;;4996312;28;7344;-55
2022/06/06 16:53:19;;;;;;;;;;;;;;;;;;5014171;28;7210;-56
2022/06/06 16:55:55;;;;;;;;;;;;;;;;;;4997248;28;9005;-53
2022/06/06 16:58:21;;;;;;;;;;;;;;;;;;4997282;28;7140;-55
2022/06/06 17:00:47;;;;;;;;;;;;;;;;;;5013860;28;7156;-56
2022/06/06 17:03:23;;;;;;;;;;;;;;;;;;5013434;28;7125;-56
2022/06/06 17:08:41;;;;;;;;;;;;;;;;;;5041972;28;6897;-54
2022/06/06 17:11:10;;;;;;;;;;;;;;;;;;5013531;28;7139;-55
2022/06/06 17:13:36;;;;;;;;;;;;;;;;;;5009540;28;7261;-55
2022/06/06 17:16:22;;;;;;;;;;;;;;;;;;5036257;28;7279;-56
2022/06/06 17:19:08;;;;;;;;;;;;;;;;;;4992992;28;9231;-57
2022/06/06 17:21:54;;;;;;;;;;;;;;;;;;4992591;28;8735;-56
2022/06/06 17:24:35;;;;;;;;;;;;;;;;;;4992868;28;7306;-56
2022/06/06 17:27:03;;;;;;;;;;;;;;;;;;4997312;28;8843;-53
2022/06/06 17:29:46;;;;;;;;;;;;;;;;;;5011895;28;7175;-56
2022/06/06 17:32:32;;;;;;;;;;;;;;;;;;5046101;28;8476;-56
2022/06/06 17:35:06;;;;;;;;;;;;;;;;;;5002264;28;7192;-57
2022/06/06 17:37:37;;;;;;;;;;;;;;;;;;5045823;28;7443;-57
2022/06/06 17:40:22;;;;;;;;;;;;;;;;;;4997220;28;9573;-56
2022/06/06 17:42:48;;;;;;;;;;;;;;;;;;4996452;28;8659;-55
2022/06/06 17:45:19;;;;;;;;;;;;;;;;;;4996847;28;8514;-58
2022/06/06 17:48:04;;;;;;;;;;;;;;;;;;5013002;28;8908;-56
2022/06/06 17:50:29;;;;;;;;;;;;;;;;;;5028894;28;7842;-57
2022/06/06 17:53:01;;;;;;;;;;;;;;;;;;5012598;28;7325;-55
2022/06/06 17:55:46;;;;;;;;;;;;;;;;;;4997423;28;7303;-56
2022/06/06 17:58:18;;;;;;;;;;;;;;;;;;5029107;28;7564;-54
2022/06/06 18:00:56;;;;;;;;;;;;;;;;;;5012803;28;7330;-59
2022/06/06 18:03:33;;;;;;;;;;;;;;;;;;5012278;28;9057;-58
2022/06/06 18:06:10;;;;;;;;;;;;;;;;;;5012124;28;7233;-51
2022/06/06 18:08:53;;;;;;;;;;;;;;;;;;5046283;28;7335;-57
2022/06/06 18:11:52;;;;;;;;;;;;;;;;;;5012711;28;8578;-56
2022/06/06 18:14:37;;;;;;;;;;;;;;;;;;5028401;28;8568;-54
2022/06/06 18:17:21;;;;;;;;;;;;;;;;;;5012541;28;7401;-55
2022/06/06 18:19:46;;;;;;;;;;;;;;;;;;5012382;28;8539;-54
2022/06/06 18:22:22;;;;;;;;;;;;;;;;;;4996840;28;7202;-56
2022/06/06 18:24:48;;;;;;;;;;;;;;;;;;4996753;28;6943;-55
2022/06/06 18:27:15;;;;;;;;;;;;;;;;;;4995412;28;7346;-54
2022/06/06 18:29:46;;;;;;;;;;;;;;;;;;4996643;28;8516;-55
2022/06/06 18:32:20;;;;;;;;;;;;;;;;;;4996357;28;7827;-53
2022/06/06 18:34:50;;;;;;;;;;;;;;;;;;4996064;28;8518;-56
2022/06/06 18:37:16;;;;;;;;;;;;;;;;;;4996382;28;8432;-54
2022/06/06 18:39:49;;;;;;;;;;;;;;;;;;5000281;28;7159;-55
2022/06/06 18:42:23;;;;;;;;;;;;;;;;;;4999545;28;7151;-53
2022/06/06 18:44:58;;;;;;;;;;;;;;;;;;4999952;28;7193;-56
2022/06/06 18:47:27;;;;;;;;;;;;;;;;;;4999937;28;8635;-52
2022/06/06 18:49:53;;;;;;;;;;;;;;;;;;5015836;28;8839;-56
2022/06/06 18:52:26;;;;;;;;;;;;;;;;;;4999370;28;7570;-54
2022/06/06 18:54:53;;;;;;;;;;;;;;;;;;5000182;28;7235;-54
2022/06/06 18:57:19;;;;;;;;;;;;;;;;;;4999294;28;7365;-56
2022/06/06 18:59:48;;;;;;;;;;;;;;;;;;5000060;28;8529;-52
2022/06/06 19:02:13;;;;;;;;;;;;;;;;;;5015908;28;7189;-55
2022/06/06 19:04:42;;;;;;;;;;;;;;;;;;5015895;28;7135;-56
2022/06/06 19:07:08;;;;;;;;;;;;;;;;;;4999703;28;8411;-45
2022/06/06 19:09:35;;;;;;;;;;;;;;;;;;5015842;28;7114;-46
2022/06/06 19:12:10;;;;;;;;;;;;;;;;;;4999448;28;7173;-51
2022/06/06 19:14:35;;;;;;;;;;;;;;;;;;5015786;28;8445;-47
2022/06/06 19:17:01;;;;;;;;;;;;;;;;;;5000069;28;8504;-51
2022/06/06 19:19:28;;;;;;;;;;;;;;;;;;4999082;28;8945;-49
2022/06/06 19:21:54;;;;;;;;;;;;;;;;;;4999356;28;8504;-54
2022/06/06 19:24:20;;;;;;;;;;;;;;;;;;4999545;28;8845;-53
2022/06/06 19:26:53;;;;;;;;;;;;;;;;;;4999500;28;7124;-55
2022/06/06 19:29:25;;;;;;;;;;;;;;;;;;4999741;28;7495;-53
2022/06/06 19:31:57;;;;;;;;;;;;;;;;;;4999660;28;7166;-54
2022/06/06 19:34:22;;;;;;;;;;;;;;;;;;5015227;28;8539;-55
2022/06/06 19:36:51;;;;;;;;;;;;;;;;;;4999209;28;8409;-55
2022/06/06 19:39:16;;;;;;;;;;;;;;;;;;5015430;28;8851;-55
2022/06/06 19:41:42;;;;;;;;;;;;;;;;;;5015479;28;7211;-54
2022/06/06 19:44:08;;;;;;;;;;;;;;;;;;4999261;28;7164;-57
2022/06/06 19:46:34;;;;;;;;;;;;;;;;;;4999277;28;8537;-53
2022/06/06 19:49:03;;;;;;;;;;;;;;;;;;4998685;28;8709;-58
2022/06/06 19:51:36;;;;;;;;;;;;;;;;;;4992833;28;8715;-42
2022/06/06 19:54:05;;;;;;;;;;;;;;;;;;5007507;28;7188;-44
2022/06/06 19:57:03;;;;;;;;;;;;;;;;;;5027964;28;8666;-40
2022/06/06 19:59:49;;;;;;;;;;;;;;;;;;4984288;28;7589;-43
2022/06/06 20:02:16;;;;;;;;;;;;;;;;;;4995469;28;8569;-43
2022/06/06 20:04:42;;;;;;;;;;;;;;;;;;5027567;28;8850;-42
2022/06/06 20:07:26;;;;;;;;;;;;;;;;;;5028556;28;6914;-41
2022/06/06 20:09:56;;;;;;;;;;;;;;;;;;5028276;28;8671;-44
2022/06/06 20:12:21;;;;;;;;;;;;;;;;;;5027504;28;8567;-47
2022/06/06 20:14:56;;;;;;;;;;;;;;;;;;5028006;28;8819;-47
2022/06/06 20:17:23;;;;;;;;;;;;;;;;;;5028093;28;8849;-49
2022/06/06 20:19:49;;;;;;;;;;;;;;;;;;5027683;28;8430;-44
2022/06/06 20:22:16;;;;;;;;;;;;;;;;;;5027973;28;7296;-43
2022/06/06 20:24:46;;;;;;;;;;;;;;;;;;5027922;28;8838;-43
2022/06/06 20:27:14;;;;;;;;;;;;;;;;;;5027087;28;7382;-44
2022/06/06 20:29:40;;;;;;;;;;;;;;;;;;4994612;28;8856;-45
2022/06/06 20:32:19;;;;;;;;;;;;;;;;;;5027249;28;8382;-43
2022/06/06 20:34:46;;;;;;;;;;;;;;;;;;5027423;28;8710;-42
2022/06/06 20:37:11;;;;;;;;;;;;;;;;;;5027738;28;7195;-45
2022/06/06 20:39:38;;;;;;;;;;;;;;;;;;4994847;28;7268;-47
2022/06/06 20:42:09;;;;;;;;;;;;;;;;;;5027007;28;7467;-48
2022/06/06 20:44:35;;;;;;;;;;;;;;;;;;5027583;28;8581;-44
2022/06/06 20:47:01;;;;;;;;;;;;;;;;;;5027586;28;7067;-42
2022/06/06 20:49:28;;;;;;;;;;;;;;;;;;5026967;28;8559;-43
2022/06/06 20:51:54;;;;;;;;;;;;;;;;;;5026727;28;8729;-42
2022/06/06 20:54:21;;;;;;;;;;;;;;;;;;5027330;28;7542;-45
2022/06/06 20:56:47;;;;;;;;;;;;;;;;;;5010307;28;8560;-45
2022/06/06 20:59:14;;;;;;;;;;;;;;;;;;5026682;28;7836;-43
2022/06/06 21:01:40;;;;;;;;;;;;;;;;;;5026637;28;7130;-44
2022/06/06 21:04:05;;;;;;;;;;;;;;;;;;5026503;28;8715;-42
2022/06/06 21:06:31;;;;;;;;;;;;;;;;;;5027186;28;7479;-47
2022/06/06 21:09:00;;;;;;;;;;;;;;;;;;5027344;28;8544;-43
2022/06/06 21:11:26;;;;;;;;;;;;;;;;;;4993773;28;7240;-43
2022/06/06 21:13:52;;;;;;;;;;;;;;;;;;5027072;28;8876;-45
2022/06/06 21:16:18;;;;;;;;;;;;;;;;;;5026980;28;7315;-46
2022/06/06 21:18:43;;;;;;;;;;;;;;;;;;5026458;28;7188;-43
2022/06/06 21:21:09;;;;;;;;;;;;;;;;;;5026861;28;7075;-49
2022/06/06 21:23:36;;;;;;;;;;;;;;;;;;5026988;28;7510;-48
2022/06/06 21:26:03;;;;;;;;;;;;;;;;;;5025929;28;8491;-44
2022/06/06 21:28:28;;;;;;;;;;;;;;;;;;5026713;28;8428;-46
2022/06/06 21:30:54;;;;;;;;;;;;;;;;;;5026646;28;7325;-46
2022/06/06 21:33:20;;;;;;;;;;;;;;;;;;5026004;28;8555;-46
2022/06/06 21:35:45;;;;;;;;;;;;;;;;;;5026681;28;8845;-49
2022/06/06 21:38:11;;;;;;;;;;;;;;;;;;5026206;28;7133;-46
2022/06/06 21:40:36;;;;;;;;;;;;;;;;;;5026156;28;7660;-44
2022/06/06 21:43:02;;;;;;;;;;;;;;;;;;5027010;28;7438;-47
2022/06/06 21:45:28;;;;;;;;;;;;;;;;;;5026060;28;8442;-50
2022/06/06 21:47:56;;;;;;;;;;;;;;;;;;5026831;28;7201;-50
2022/06/06 21:50:22;;;;;;;;;;;;;;;;;;5026637;28;7326;-48
2022/06/06 21:52:49;;;;;;;;;;;;;;;;;;5026172;28;8880;-49
2022/06/06 21:55:15;;;;;;;;;;;;;;;;;;5027330;28;7171;-48
2022/06/06 21:57:40;;;;;;;;;;;;;;;;;;5026646;28;8472;-46
2022/06/06 22:00:08;;;;;;;;;;;;;;;;;;5026412;28;8643;-47
2022/06/06 22:02:35;;;;;;;;;;;;;;;;;;5026706;28;9227;-49
2022/06/06 22:05:01;;;;;;;;;;;;;;;;;;5026304;28;8562;-44
2022/06/06 22:07:26;;;;;;;;;;;;;;;;;;5003707;28;8893;-46
2022/06/06 22:09:52;;;;;;;;;;;;;;;;;;5020185;28;8602;-49
2022/06/06 22:12:17;;;;;;;;;;;;;;;;;;5004330;28;7207;-49
2022/06/06 22:14:44;;;;;;;;;;;;;;;;;;5040967;28;7353;-47
2022/06/06 22:17:09;;;;;;;;;;;;;;;;;;5007406;28;7173;-50
2022/06/06 22:19:35;;;;;;;;;;;;;;;;;;5037985;28;7242;-50
2022/06/06 22:22:00;;;;;;;;;;;;;;;;;;5007662;28;8605;-47
2022/06/06 22:24:26;;;;;;;;;;;;;;;;;;5040816;28;8727;-47
2022/06/06 22:26:52;;;;;;;;;;;;;;;;;;5007188;28;8479;-49
2022/06/06 22:29:17;;;;;;;;;;;;;;;;;;5007304;28;7276;-48
2022/06/06 22:31:43;;;;;;;;;;;;;;;;;;5007992;28;7356;-47
2022/06/06 22:34:08;;;;;;;;;;;;;;;;;;5007678;28;7154;-47
2022/06/06 22:36:34;;;;;;;;;;;;;;;;;;5040383;28;8679;-51
2022/06/06 22:38:59;;;;;;;;;;;;;;;;;;5040129;28;7327;-46
2022/06/06 22:41:25;;;;;;;;;;;;;;;;;;5007646;28;7278;-48
2022/06/06 22:43:50;;;;;;;;;;;;;;;;;;5029751;28;8893;-44
2022/06/06 22:46:16;;;;;;;;;;;;;;;;;;4997224;28;8574;-45
2022/06/06 22:48:41;;;;;;;;;;;;;;;;;;5004816;28;8815;-47
2022/06/06 22:51:07;;;;;;;;;;;;;;;;;;5007897;28;8570;-45
2022/06/06 22:53:33;;;;;;;;;;;;;;;;;;5041132;28;7565;-45
2022/06/06 22:56:00;;;;;;;;;;;;;;;;;;5049958;28;8682;-44
2022/06/06 22:58:26;;;;;;;;;;;;;;;;;;5049371;28;8472;-49
2022/06/06 23:00:52;;;;;;;;;;;;;;;;;;5050107;28;8595;-44
2022/06/06 23:03:17;;;;;;;;;;;;;;;;;;5032542;28;9455;-45
2022/06/06 23:05:42;;;;;;;;;;;;;;;;;;5033030;28;8548;-44
2022/06/06 23:08:08;;;;;;;;;;;;;;;;;;5050159;28;7364;-44
2022/06/06 23:10:34;;;;;;;;;;;;;;;;;;5034067;28;7129;-50
2022/06/06 23:12:59;;;;;;;;;;;;;;;;;;5049078;28;8825;-48
2022/06/06 23:15:25;;;;;;;;;;;;;;;;;;5049196;28;7556;-45
2022/06/06 23:17:50;;;;;;;;;;;;;;;;;;5049688;28;8084;-47
2022/06/06 23:20:16;;;;;;;;;;;;;;;;;;5049242;28;8417;-49
2022/06/06 23:22:41;;;;;;;;;;;;;;;;;;5048886;28;8558;-45
2022/06/06 23:25:07;;;;;;;;;;;;;;;;;;5048950;28;8529;-44
2022/06/06 23:27:33;;;;;;;;;;;;;;;;;;5049334;28;8527;-44
2022/06/06 23:29:58;;;;;;;;;;;;;;;;;;5049173;28;7477;-48
2022/06/06 23:32:24;;;;;;;;;;;;;;;;;;5049134;28;8408;-45
2022/06/06 23:34:49;;;;;;;;;;;;;;;;;;5049404;28;8856;-46
2022/06/06 23:37:20;;;;;;;;;;;;;;;;;;5048692;28;8465;-44
2022/06/06 23:39:53;;;;;;;;;;;;;;;;;;5048984;28;7249;-49
2022/06/06 23:42:19;;;;;;;;;;;;;;;;;;5049365;28;8564;-44
2022/06/06 23:47:49;;;;;;;;;;;;;;;;;;5044104;28;7123;-48
2022/06/06 23:50:20;;;;;;;;;;;;;;;;;;5046806;28;8545;-49
2022/06/06 23:52:46;;;;;;;;;;;;;;;;;;5049051;28;7174;-43
2022/06/06 23:55:11;;;;;;;;;;;;;;;;;;5048455;28;7286;-43
2022/06/06 23:57:37;;;;;;;;;;;;;;;;;;5048765;28;7168;-50
